Time;durP1;ratioP1;P1;durP2;ratioP2;P2;SDS_P1;SDS_P2;PMS_P1;PMS_P2;Temp;Humidity;BMP_temperature;BMP_pressure;BME280_temperature;BME280_humidity;BME280_pressure;Samples;Min_cycle;Max_cycle;Signal;HPM_P1;HPM_P2
2022/06/08 00:00:16;;;;;;;4.50;2.25;;;;;;;21.43;35.11;99215.38;4973274;28;20038;-69
2022/06/08 00:02:45;;;;;;;3.55;2.10;;;;;;;21.42;35.13;99209.19;4974580;28;20077;-68
2022/06/08 00:05:11;;;;;;;7.45;3.22;;;;;;;21.42;35.12;99213.72;4968556;28;20042;-70
2022/06/08 00:07:37;;;;;;;7.93;3.13;;;;;;;21.42;35.11;99221.78;4963234;28;20039;-68
2022/06/08 00:10:04;;;;;;;5.53;2.75;;;;;;;21.43;35.23;99216.22;4957843;28;20043;-68
2022/06/08 00:12:30;;;;;;;6.85;2.78;;;;;;;21.43;35.42;99226.16;4957198;28;20066;-69
2022/06/08 00:14:56;;;;;;;6.03;2.25;;;;;;;21.44;35.38;99220.59;4958131;28;20038;-68
2022/06/08 00:17:22;;;;;;;5.93;2.20;;;;;;;21.45;35.21;99219.56;4967340;28;20406;-71
2022/06/08 00:19:47;;;;;;;5.35;2.60;;;;;;;21.46;35.29;99215.84;4955887;28;20046;-67
2022/06/08 00:22:13;;;;;;;7.90;3.28;;;;;;;21.46;35.32;99218.53;4972643;28;20034;-70
2022/06/08 00:24:39;;;;;;;7.65;2.20;;;;;;;21.45;35.40;99210.63;4959493;28;20525;-71
2022/06/08 00:27:05;;;;;;;4.00;2.55;;;;;;;21.45;35.36;99213.34;4961195;28;20517;-70
2022/06/08 00:29:30;;;;;;;5.03;2.15;;;;;;;21.46;35.31;99218.53;4959989;28;20026;-70
2022/06/08 00:31:56;;;;;;;3.80;1.80;;;;;;;21.46;35.39;99213.16;4959105;28;20027;-71
2022/06/08 00:34:21;;;;;;;5.57;2.45;;;;;;;21.47;35.19;99213.97;4959058;28;20390;-69
2022/06/08 00:36:47;;;;;;;7.50;2.33;;;;;;;21.47;35.28;99208.59;4962059;28;20094;-69
2022/06/08 00:39:12;;;;;;;7.72;2.55;;;;;;;21.47;35.69;99212.09;4966116;28;20138;-67
2022/06/08 00:41:40;;;;;;;6.15;2.13;;;;;;;21.47;35.33;99212.09;4958193;28;20110;-67
2022/06/08 00:44:30;;;;;;;9.32;2.58;;;;;;;21.49;35.49;99212.72;4955322;28;20183;-68
2022/06/08 00:46:56;;;;;;;3.83;2.35;;;;;;;21.49;35.48;99206.53;4970582;28;20034;-69
2022/06/08 00:49:27;;;;;;;5.88;2.20;;;;;;;21.50;35.61;99202.81;4963635;28;20673;-71
2022/06/08 00:51:52;;;;;;;5.53;2.58;;;;;;;21.53;35.67;99210.47;4964212;28;20182;-67
2022/06/08 00:54:30;;;;;;;4.45;2.00;;;;;;;21.55;35.54;99207.59;4970410;28;20038;-68
2022/06/08 00:57:03;;;;;;;6.25;2.33;;;;;;;21.53;35.62;99202.41;4955202;28;20110;-69
2022/06/08 00:59:28;;;;;;;9.00;2.20;;;;;;;21.57;35.41;99202.81;4954493;28;20027;-70
2022/06/08 01:01:54;;;;;;;5.40;1.85;;;;;;;21.57;35.41;99203.66;4955755;28;20031;-70
2022/06/08 01:04:21;;;;;;;5.80;2.08;;;;;;;21.58;35.52;99197.22;4962735;28;20458;-69
2022/06/08 01:06:53;;;;;;;4.38;2.00;;;;;;;21.58;35.37;99197.22;4953923;28;20050;-70
2022/06/08 01:09:28;;;;;;;3.17;1.67;;;;;;;21.58;35.39;99197.22;4953986;28;20049;-70
2022/06/08 01:11:58;;;;;;;4.45;1.75;;;;;;;21.59;35.14;99204.28;4954907;28;20391;-69
2022/06/08 01:14:24;;;;;;;3.13;1.98;;;;;;;21.58;35.44;99202.63;4952630;28;20398;-69
2022/06/08 01:17:21;;;;;;;4.68;1.77;;;;;;;21.59;35.33;99204.28;4953639;28;20031;-70
2022/06/08 01:19:48;;;;;;;6.20;1.73;;;;;;;21.60;35.33;99205.97;4957392;28;20430;-70
2022/06/08 01:22:17;;;;;;;4.55;1.65;;;;;;;21.59;35.50;99203.47;4953832;28;20110;-71
2022/06/08 01:24:46;;;;;;;3.33;1.70;;;;;;;21.60;35.44;99207.84;4958565;28;20040;-69
2022/06/08 01:27:39;;;;;;;3.35;1.98;;;;;;;21.60;35.42;99210.53;4953753;28;20117;-70
2022/06/08 01:30:13;;;;;;;6.85;2.13;;;;;;;21.59;35.40;99211.53;4953719;28;20039;-69
2022/06/08 01:32:43;;;;;;;5.45;1.92;;;;;;;21.60;35.32;99205.16;4957525;28;20102;-69
2022/06/08 01:35:31;;;;;;;6.78;2.08;;;;;;;21.59;35.36;99209.66;4953718;28;20110;-70
2022/06/08 01:38:14;;;;;;;5.45;2.13;;;;;;;21.61;35.49;99213.03;4953860;28;20067;-69
2022/06/08 01:40:51;;;;;;;3.78;1.92;;;;;;;21.60;35.25;99214.06;4964502;28;20042;-72
2022/06/08 01:43:34;;;;;;;5.30;1.75;;;;;;;21.62;35.43;99213.84;4970298;28;20031;-68
2022/06/08 01:46:17;;;;;;;2.25;1.80;;;;;;;21.62;35.45;99214.69;4963163;28;20039;-67
2022/06/08 01:49:18;;;;;;;2.60;1.80;;;;;;;21.62;35.52;99219.22;4953763;28;20043;-65
2022/06/08 01:52:00;;;;;;;3.30;1.92;;;;;;;21.63;35.43;99218.19;4953363;28;20051;-68
2022/06/08 01:54:52;;;;;;;8.40;2.47;;;;;;;21.64;35.53;99220.69;4952824;28;20413;-67
2022/06/08 01:57:24;;;;;;;7.78;2.00;;;;;;;21.66;35.63;99219.69;4935586;28;20039;-68
2022/06/08 02:00:09;;;;;;;3.53;1.80;;;;;;;21.67;35.49;99222.16;4955904;28;20042;-69
2022/06/08 02:02:40;;;;;;;3.92;1.48;;;;;;;21.69;35.62;99228.16;4973409;28;20039;-68
2022/06/08 02:05:24;;;;;;;3.40;1.60;;;;;;;21.69;35.47;99222.78;4975243;28;20129;-69
2022/06/08 02:08:26;;;;;;;2.80;1.73;;;;;;;21.71;35.59;99225.25;4974988;28;20046;-69
2022/06/08 02:11:22;;;;;;;5.50;2.25;;;;;;;21.72;35.65;99224.25;4961552;28;20486;-69
2022/06/08 02:13:54;;;;;;;3.40;1.80;;;;;;;21.72;35.76;99229.63;4956780;28;20061;-69
2022/06/08 02:16:38;;;;;;;2.90;1.63;;;;;;;21.73;35.75;99236.66;4956670;28;20074;-69
2022/06/08 02:19:09;;;;;;;4.88;1.60;;;;;;;21.73;35.73;99224.06;4973048;28;20031;-69
2022/06/08 02:21:46;;;;;;;2.92;1.55;;;;;;;21.75;35.69;99231.91;4974555;28;20043;-68
2022/06/08 02:24:21;;;;;;;2.30;1.48;;;;;;;21.83;35.59;99239.84;4974966;28;20057;-69
2022/06/08 02:26:53;;;;;;;2.58;1.70;;;;;;;21.90;35.64;99231.78;4961427;28;20035;-69
2022/06/08 02:29:37;;;;;;;4.93;1.50;;;;;;;21.94;35.61;99233.84;4956438;28;20487;-70
2022/06/08 02:34:59;;;;;;;3.72;1.42;;;;;;;22.16;35.43;99236.38;4957005;28;20130;-70
2022/06/08 02:37:29;;;;;;;4.55;1.80;;;;;;;22.20;35.56;99243.03;4956306;28;20042;-71
2022/06/08 02:40:02;;;;;;;4.03;1.73;;;;;;;22.23;35.51;99239.94;4961977;28;20530;-70
2022/06/08 02:42:39;;;;;;;2.95;1.35;;;;;;;22.24;35.34;99238.91;4961706;28;20499;-70
2022/06/08 02:45:27;;;;;;;7.40;2.13;;;;;;;22.24;35.38;99238.91;4956349;28;20046;-71
2022/06/08 02:48:00;;;;;;;4.70;2.13;;;;;;;22.24;35.50;99238.91;4956590;28;20031;-70
2022/06/08 02:50:27;;;;;;;5.35;1.67;;;;;;;22.29;35.52;99240.13;4955941;28;20054;-69
2022/06/08 02:53:09;;;;;;;3.03;1.55;;;;;;;22.32;35.54;99247.81;4956616;28;20386;-67
2022/06/08 02:55:42;;;;;;;2.25;1.38;;;;;;;22.33;35.44;99241.38;4955432;28;20118;-66
2022/06/08 02:58:22;;;;;;;3.75;1.90;;;;;;;22.35;35.46;99240.13;4959668;28;20043;-71
2022/06/08 03:01:01;;;;;;;3.55;1.45;;;;;;;22.38;35.49;99238.91;4956566;28;20043;-71
2022/06/08 03:03:35;;;;;;;3.35;1.83;;;;;;;22.44;35.50;99240.00;4956789;28;20035;-72
2022/06/08 03:06:05;;;;;;;3.25;1.55;;;;;;;22.47;35.35;99248.50;4956873;28;20035;-71
2022/06/08 03:08:35;;;;;;;3.30;1.48;;;;;;;22.49;35.44;99254.50;4956701;28;20402;-70
2022/06/08 03:11:04;;;;;;;2.95;1.30;;;;;;;22.58;35.40;99257.84;4955069;28;20446;-70
2022/06/08 03:13:41;;;;;;;4.97;1.63;;;;;;;22.83;35.02;99262.59;4977102;28;20035;-71
2022/06/08 03:16:08;;;;;;;4.47;1.55;;;;;;;23.13;34.56;99267.56;4975342;28;20516;-71
2022/06/08 03:18:35;;;;;;;4.65;1.67;;;;;;;23.48;34.17;99259.22;4975477;28;20034;-71
2022/06/08 03:21:03;;;;;;;2.75;1.42;;;;;;;23.84;33.52;99262.41;4975584;28;20066;-71
2022/06/08 03:23:29;;;;;;;2.05;1.33;;;;;;;24.13;33.35;99261.03;4974692;28;20045;-71
2022/06/08 03:25:55;;;;;;;2.42;1.27;;;;;;;24.41;32.85;99264.41;4975456;28;20045;-70
2022/06/08 03:28:21;;;;;;;2.35;1.50;;;;;;;24.63;32.84;99257.56;4973930;28;20498;-71
2022/06/08 03:30:47;;;;;;;3.05;1.70;;;;;;;24.76;32.67;99263.97;4975659;28;20043;-71
2022/06/08 03:33:13;;;;;;;2.42;1.25;;;;;;;24.74;32.68;99261.47;4975199;28;20486;-71
2022/06/08 03:35:39;;;;;;;3.20;1.33;;;;;;;24.68;32.68;99263.16;4975363;28;20113;-69
2022/06/08 03:38:05;;;;;;;6.30;1.67;;;;;;;24.63;32.59;99271.09;4974992;28;20554;-68
2022/06/08 03:40:31;;;;;;;2.28;1.70;;;;;;;24.57;33.04;99265.72;4975398;28;20117;-70
2022/06/08 03:42:57;;;;;;;6.30;1.52;;;;;;;24.55;33.09;99271.38;4973234;28;20162;-69
2022/06/08 03:45:25;;;;;;;2.78;0.90;;;;;;;24.51;33.06;99270.16;4975280;28;20186;-69
2022/06/08 03:47:52;;;;;;;5.57;1.73;;;;;;;24.56;33.09;99270.34;4975333;28;20066;-69
2022/06/08 03:50:25;;;;;;;3.65;1.77;;;;;;;24.64;33.13;99280.06;4975214;28;20031;-69
2022/06/08 03:52:58;;;;;;;7.63;1.45;;;;;;;24.66;32.89;99269.84;4975129;28;20035;-69
2022/06/08 03:55:25;;;;;;;2.40;1.40;;;;;;;24.60;33.10;99274.25;4975301;28;20035;-69
2022/06/08 03:57:51;;;;;;;1.60;0.88;;;;;;;24.51;33.48;99278.25;4973079;28;20035;-69
2022/06/08 04:00:19;;;;;;;3.85;1.50;;;;;;;24.44;33.26;99280.19;4974782;28;20390;-69
2022/06/08 04:02:49;;;;;;;3.08;1.50;;;;;;;24.42;33.73;99280.41;4975045;28;20038;-68
2022/06/08 04:05:16;;;;;;;2.25;1.33;;;;;;;24.36;33.38;99274.00;4974825;28;20055;-69
2022/06/08 04:07:42;;;;;;;2.38;1.35;;;;;;;24.32;33.82;99282.75;4974865;28;20042;-69
2022/06/08 04:10:09;;;;;;;3.92;1.23;;;;;;;24.29;33.76;99278.63;4974860;28;20034;-69
2022/06/08 04:12:35;;;;;;;3.83;1.40;;;;;;;24.26;33.77;99279.06;4974358;28;20076;-69
2022/06/08 04:15:00;;;;;;;4.07;1.75;;;;;;;24.24;33.18;99278.44;4975403;28;20038;-70
2022/06/08 04:17:26;;;;;;;4.72;1.77;;;;;;;24.28;33.02;99278.81;4970791;28;20069;-70
2022/06/08 04:19:51;;;;;;;7.47;1.67;;;;;;;24.32;33.30;99280.91;4974763;28;20035;-70
2022/06/08 04:22:20;;;;;;;2.10;1.30;;;;;;;24.35;33.19;99285.03;4974058;28;20443;-70
2022/06/08 04:24:46;;;;;;;2.70;1.15;;;;;;;24.34;33.49;99276.06;4974833;28;20038;-70
2022/06/08 04:27:12;;;;;;;4.45;1.15;;;;;;;24.35;33.29;99290.44;4974154;28;20030;-70
2022/06/08 04:29:38;;;;;;;3.42;1.40;;;;;;;24.38;32.98;99280.00;4974296;28;20509;-70
2022/06/08 04:32:09;;;;;;;3.38;1.40;;;;;;;24.50;33.19;99282.00;4974186;28;20407;-70
2022/06/08 04:34:35;;;;;;;;;;;;;;;24.64;32.74;99277.34;4973760;28;20043;-69
2022/06/08 04:37:00;;;;;;;3.80;0.95;;;;;;;24.94;32.59;99280.25;4974053;28;19914;-70
2022/06/08 04:39:26;;;;;;;3.30;1.40;;;;;;;25.20;32.40;99277.53;4974394;28;20062;-70
2022/06/08 04:41:51;;;;;;;3.95;1.60;;;;;;;25.44;32.08;99273.13;4974118;28;20045;-70
2022/06/08 04:44:16;;;;;;;3.53;1.38;;;;;;;25.60;31.70;99274.41;4974330;28;20026;-69
2022/06/08 04:46:42;;;;;;;3.08;1.70;;;;;;;25.78;31.83;99286.28;4974082;28;20041;-70
2022/06/08 04:49:08;;;;;;;7.72;1.80;;;;;;;25.90;31.56;99277.19;4971871;28;20040;-69
2022/06/08 04:51:34;;;;;;;4.03;1.52;;;;;;;26.02;31.25;99270.97;4973891;28;20059;-70
2022/06/08 04:54:00;;;;;;;2.90;1.35;;;;;;;26.12;31.34;99273.19;4973924;28;20401;-69
2022/06/08 04:56:26;;;;;;;3.67;1.92;;;;;;;26.18;31.29;99270.38;4960521;28;20501;-69
2022/06/08 04:58:54;;;;;;;6.00;1.48;;;;;;;26.25;31.24;99269.47;4954832;28;20175;-69
2022/06/08 05:01:20;;;;;;;3.03;1.75;;;;;;;26.30;31.15;99264.16;4954203;28;20027;-69
2022/06/08 05:03:45;;;;;;;3.53;1.25;;;;;;;26.36;30.95;99255.09;4954444;28;20110;-69
2022/06/08 05:06:11;;;;;;;3.25;2.28;;;;;;;26.41;31.02;99257.13;4954419;28;20073;-68
2022/06/08 05:08:36;;;;;;;2.83;1.25;;;;;;;26.44;30.94;99254.75;4954700;28;20031;-69
2022/06/08 05:11:04;;;;;;;2.55;1.52;;;;;;;26.47;30.87;99250.78;4962410;28;20533;-69
2022/06/08 05:13:31;;;;;;;3.85;1.50;;;;;;;26.50;30.93;99253.00;4973173;28;20118;-69
2022/06/08 05:15:56;;;;;;;2.55;1.67;;;;;;;26.53;30.93;99254.44;4974068;28;20449;-69
2022/06/08 05:18:23;;;;;;;4.32;1.42;;;;;;;26.54;31.03;99256.09;4973986;28;20042;-71
2022/06/08 05:20:50;;;;;;;4.50;1.60;;;;;;;26.55;30.94;99257.72;4973467;28;20049;-68
2022/06/08 05:23:25;;;;;;;3.50;1.70;;;;;;;26.56;30.89;99259.38;4973716;28;20046;-71
2022/06/08 05:25:52;;;;;;;2.92;1.45;;;;;;;26.56;31.13;99270.22;4974086;28;20042;-70
2022/06/08 05:28:18;;;;;;;3.40;1.10;;;;;;;26.55;30.91;99271.28;4973771;28;20028;-70
2022/06/08 05:30:44;;;;;;;2.65;1.58;;;;;;;26.54;30.91;99269.66;4973513;28;20129;-70
2022/06/08 05:33:11;;;;;;;2.15;1.23;;;;;;;26.53;30.83;99271.53;4973250;28;20066;-71
2022/06/08 05:35:37;;;;;;;2.88;1.25;;;;;;;26.49;30.82;99268.47;4977211;28;20038;-70
2022/06/08 05:38:03;;;;;;;2.78;1.55;;;;;;;26.46;30.95;99268.91;4977559;28;20031;-70
2022/06/08 05:40:32;;;;;;;2.75;1.20;;;;;;;26.46;31.13;99281.66;4977363;28;20473;-70
2022/06/08 05:42:59;;;;;;;3.00;1.30;;;;;;;26.43;31.17;99276.69;4976211;28;20030;-69
2022/06/08 05:45:27;;;;;;;3.25;1.20;;;;;;;26.41;31.14;99279.63;4976383;28;20042;-70
2022/06/08 05:47:53;;;;;;;3.95;1.30;;;;;;;26.37;30.91;99272.19;4977151;28;20046;-70
2022/06/08 05:50:19;;;;;;;2.42;1.38;;;;;;;26.35;31.08;99275.16;4977354;28;20035;-70
2022/06/08 05:52:45;;;;;;;2.10;1.40;;;;;;;26.31;31.28;99274.78;4977258;28;20441;-69
2022/06/08 05:55:12;;;;;;;4.63;1.50;;;;;;;26.29;31.07;99281.47;4974368;28;20079;-70
2022/06/08 05:57:38;;;;;;;2.90;1.90;;;;;;;26.27;31.26;99279.00;4976975;28;20045;-70
2022/06/08 06:00:08;;;;;;;2.50;1.27;;;;;;;26.24;31.15;99281.38;4976843;28;20392;-70
2022/06/08 06:02:33;;;;;;;2.13;1.50;;;;;;;26.22;31.19;99283.47;4976884;28;20041;-69
2022/06/08 06:04:59;;;;;;;3.05;1.42;;;;;;;26.20;31.24;99289.94;4974999;28;20035;-70
2022/06/08 06:07:25;;;;;;;5.18;1.17;;;;;;;26.17;31.22;99284.97;4977109;28;20038;-71
2022/06/08 06:09:50;;;;;;;8.40;1.17;;;;;;;26.15;31.36;99292.50;4977325;28;20031;-70
2022/06/08 06:12:16;;;;;;;7.15;1.63;;;;;;;26.13;31.18;99291.91;4976620;28;20039;-71
2022/06/08 06:14:42;;;;;;;5.50;1.40;;;;;;;26.09;31.35;99288.00;4976750;28;20561;-71
2022/06/08 06:17:07;;;;;;;4.43;1.63;;;;;;;26.04;31.81;99279.72;4976656;28;20034;-71
2022/06/08 06:19:33;;;;;;;5.22;1.30;;;;;;;25.99;31.67;99283.13;4971835;28;20031;-71
2022/06/08 06:21:59;;;;;;;2.65;1.20;;;;;;;25.93;31.34;99289.44;4957138;28;20035;-70
2022/06/08 06:24:25;;;;;;;4.78;1.58;;;;;;;25.90;31.20;99292.59;4957432;28;20038;-70
2022/06/08 06:26:52;;;;;;;3.35;1.30;;;;;;;25.84;31.50;99290.81;4957381;28;20065;-70
2022/06/08 06:29:18;;;;;;;4.45;1.15;;;;;;;25.78;31.56;99287.13;4957438;28;20055;-70
2022/06/08 06:31:50;;;;;;;6.93;1.48;;;;;;;25.72;31.63;99291.59;4961194;28;20430;-70
2022/06/08 06:34:18;;;;;;;3.80;1.20;;;;;;;25.68;31.45;99292.25;4976547;28;20105;-70
2022/06/08 06:36:44;;;;;;;5.97;1.38;;;;;;;25.64;31.55;99291.88;4976366;28;20047;-70
2022/06/08 06:39:10;;;;;;;3.13;1.40;;;;;;;25.61;31.71;99288.78;4976610;28;20526;-71
2022/06/08 06:41:37;;;;;;;5.57;1.55;;;;;;;25.56;31.82;99293.00;4976329;28;20084;-70
2022/06/08 06:44:03;;;;;;;2.33;1.35;;;;;;;25.53;31.77;99301.56;4976228;28;20109;-70
2022/06/08 06:46:28;;;;;;;4.03;1.73;;;;;;;25.52;30.82;99302.63;4974749;28;20034;-70
2022/06/08 06:48:54;;;;;;;2.53;1.25;;;;;;;25.49;30.99;99300.38;4976407;28;20038;-72
2022/06/08 06:51:19;;;;;;;3.78;1.75;;;;;;;25.46;31.27;99292.69;4974114;28;20524;-69
2022/06/08 06:53:45;;;;;;;3.72;1.33;;;;;;;25.42;31.41;99288.78;4976081;28;20031;-71
2022/06/08 06:56:10;;;;;;;2.85;0.95;;;;;;;25.39;31.75;99298.16;4975765;28;20031;-70
2022/06/08 06:58:36;;;;;;;6.78;1.15;;;;;;;25.38;31.43;99296.50;4976113;28;20401;-71
2022/06/08 07:01:04;;;;;;;3.35;1.02;;;;;;;25.36;31.79;99295.09;4975923;28;20067;-69
2022/06/08 07:03:30;;;;;;;3.25;0.95;;;;;;;25.34;31.80;99297.19;4974977;28;20486;-71
2022/06/08 07:05:56;;;;;;;3.15;1.00;;;;;;;25.31;31.69;99292.22;4975636;28;20117;-71
2022/06/08 07:08:22;;;;;;;1.75;1.00;;;;;;;25.28;32.15;99294.31;4975858;28;20126;-71
2022/06/08 07:11:32;;;;;;;1.90;1.10;;;;;;;25.26;31.41;99301.81;4975563;28;20035;-71
2022/06/08 07:13:33;;;;;;;3.22;1.33;;;;;;;25.25;31.50;99304.75;4975388;28;20027;-71
2022/06/08 07:15:59;;;;;;;3.00;1.10;;;;;;;25.23;31.02;99298.75;4975174;28;20086;-71
2022/06/08 07:18:24;;;;;;;5.10;0.93;;;;;;;25.23;31.51;99304.97;4974103;28;20089;-70
2022/06/08 07:20:50;;;;;;;4.43;1.55;;;;;;;25.22;31.42;99311.44;4975509;28;20141;-71
2022/06/08 07:23:15;;;;;;;3.42;1.05;;;;;;;25.20;31.55;99308.16;4975577;28;20023;-70
2022/06/08 07:25:40;;;;;;;3.10;0.95;;;;;;;25.18;31.76;99304.81;4973471;28;20548;-71
2022/06/08 07:28:06;;;;;;;5.03;1.10;;;;;;;25.17;31.51;99302.31;4975416;28;20390;-70
2022/06/08 07:30:32;;;;;;;3.97;1.10;;;;;;;25.16;31.71;99304.22;4975163;28;20483;-70
2022/06/08 07:32:57;;;;;;;4.45;1.13;;;;;;;25.14;31.75;99301.75;4975051;28;20030;-70
2022/06/08 07:35:23;;;;;;;2.53;0.85;;;;;;;25.13;31.58;99288.41;4975119;28;20039;-71
2022/06/08 07:37:48;;;;;;;5.05;0.85;;;;;;;25.10;31.83;99295.09;4975305;28;20118;-71
2022/06/08 07:40:14;;;;;;;3.28;1.25;;;;;;;25.11;31.39;99304.88;4975265;28;20106;-69
2022/06/08 07:42:39;;;;;;;4.15;1.00;;;;;;;25.12;30.35;99301.13;4955282;28;20050;-71
2022/06/08 07:45:07;;;;;;;0.90;0.57;;;;;;;25.10;30.54;99300.53;4955971;29;20031;-70
2022/06/08 07:47:33;;;;;;;2.40;1.23;;;;;;;25.11;30.60;99304.88;4956301;28;20043;-70
2022/06/08 07:49:58;;;;;;;4.95;1.30;;;;;;;25.12;30.57;99305.69;4955576;29;20038;-70
2022/06/08 07:52:24;;;;;;;2.28;0.95;;;;;;;25.12;30.42;99311.13;4956020;28;20063;-70
2022/06/08 07:54:50;;;;;;;7.25;1.10;;;;;;;25.13;30.46;99308.22;4974640;28;20490;-71
2022/06/08 07:57:23;;;;;;;1.98;0.95;;;;;;;25.12;31.00;99303.84;4974340;28;20122;-71
2022/06/08 07:59:49;;;;;;;2.20;1.10;;;;;;;25.09;31.23;99298.03;4975300;28;20121;-71
2022/06/08 08:02:15;;;;;;;2.50;0.80;;;;;;;25.07;31.56;99292.84;4974897;28;20434;-70
2022/06/08 08:04:41;;;;;;;1.95;0.80;;;;;;;25.05;31.21;99300.34;4972117;28;20031;-70
2022/06/08 08:07:07;;;;;;;1.73;0.90;;;;;;;25.06;31.44;99298.50;4975272;28;20030;-71
2022/06/08 08:09:33;;;;;;;1.15;0.70;;;;;;;25.06;31.06;99303.91;4974695;28;20486;-71
2022/06/08 08:12:00;;;;;;;1.23;0.63;;;;;;;25.03;31.25;99288.91;4974435;28;20085;-70
2022/06/08 08:14:25;;;;;;;3.67;1.02;;;;;;;25.04;30.67;99298.69;4974641;28;20041;-72
2022/06/08 08:16:51;;;;;;;1.60;0.85;;;;;;;25.03;30.82;99294.31;4972106;28;20490;-71
2022/06/08 08:19:19;;;;;;;4.20;0.95;;;;;;;25.06;31.01;99295.78;4974486;28;20482;-71
2022/06/08 08:21:46;;;;;;;3.00;0.80;;;;;;;25.04;30.89;99290.56;4974132;28;20038;-71
2022/06/08 08:24:11;;;;;;;3.17;0.80;;;;;;;25.02;31.08;99289.16;4974547;28;20150;-71
2022/06/08 08:26:37;;;;;;;3.78;1.10;;;;;;;25.01;31.42;99296.41;4973104;28;20047;-70
2022/06/08 08:29:03;;;;;;;4.55;1.35;;;;;;;25.01;30.84;99298.31;4974629;28;20045;-71
2022/06/08 08:31:29;;;;;;;2.80;0.90;;;;;;;24.99;30.54;99291.25;4972764;28;20081;-71
2022/06/08 08:33:55;;;;;;;3.15;1.00;;;;;;;25.01;30.50;99292.91;4974102;28;20039;-68
2022/06/08 08:36:20;;;;;;;1.48;0.80;;;;;;;25.02;30.48;99302.69;4969985;28;20705;-67
2022/06/08 08:38:46;;;;;;;1.25;0.75;;;;;;;25.03;30.76;99290.81;4971590;28;20042;-69
2022/06/08 08:44:04;;;;;;;2.03;1.02;;;;;;;24.99;31.08;99283.13;4959105;28;20445;-71
2022/06/08 08:46:48;;;;;;;4.78;0.88;;;;;;;24.99;30.86;99283.13;4954466;28;20062;-68
2022/06/08 08:49:20;;;;;;;2.70;0.95;;;;;;;24.99;30.48;99285.03;4954339;28;20561;-70
2022/06/08 08:52:18;;;;;;;6.03;0.90;;;;;;;24.99;29.94;99282.31;4953792;28;20051;-71
2022/06/08 08:54:55;;;;;;;1.80;1.13;;;;;;;24.98;30.58;99286.88;4972096;28;20431;-70
2022/06/08 08:57:53;;;;;;;1.10;0.70;;;;;;;24.98;30.97;99286.88;4969897;28;20557;-69
2022/06/08 09:00:28;;;;;;;2.47;1.08;;;;;;;24.96;30.73;99283.56;4940617;28;20531;-69
2022/06/08 09:05:41;;;;;;;3.25;1.02;;;;;;;24.97;30.13;99276.28;4972439;28;20584;-71
2022/06/08 09:08:09;;;;;;;3.75;1.08;;;;;;;24.98;29.90;99284.16;4964449;28;20049;-70
2022/06/08 09:10:35;;;;;;;4.57;1.48;;;;;;;24.97;29.02;99279.00;4969225;28;20046;-72
2022/06/08 09:13:03;;;;;;;2.05;1.10;;;;;;;24.93;28.40;99277.78;4971179;28;20027;-71
2022/06/08 09:15:54;;;;;;;5.65;1.02;;;;;;;24.85;27.86;99276.16;4967303;28;20038;-71
2022/06/08 09:18:47;;;;;;;4.55;1.00;;;;;;;24.75;29.02;99282.06;4959076;28;20079;-71
2022/06/08 09:21:18;;;;;;;2.65;1.00;;;;;;;24.67;28.88;99272.31;4962808;28;20035;-70
2022/06/08 09:23:44;;;;;;;4.70;1.00;;;;;;;24.64;28.15;99272.75;4964862;28;20031;-70
2022/06/08 09:26:16;;;;;;;3.30;1.40;;;;;;;24.61;28.40;99273.22;4964975;28;20034;-70
2022/06/08 09:28:42;;;;;;;8.65;1.25;;;;;;;24.60;28.27;99270.72;4969137;28;20038;-71
2022/06/08 09:31:28;;;;;;;2.58;1.00;;;;;;;24.59;27.51;99269.06;4969657;28;20043;-70
2022/06/08 09:34:04;;;;;;;5.85;1.67;;;;;;;24.55;28.30;99275.97;4970746;28;20039;-71
2022/06/08 09:36:29;;;;;;;2.63;1.20;;;;;;;24.53;28.46;99265.34;4966422;28;20033;-70
2022/06/08 09:38:56;;;;;;;3.40;1.05;;;;;;;24.51;28.12;99267.44;4968904;28;20565;-70
2022/06/08 09:41:28;;;;;;;3.13;1.52;;;;;;;24.50;28.95;99268.50;4969774;28;20085;-71
2022/06/08 09:44:16;;;;;;;8.23;1.25;;;;;;;24.47;29.04;99261.66;4968980;28;21503;-71
2022/06/08 09:53:06;;;;;;;5.10;1.55;;;;;;;24.40;29.55;99266.28;4971907;28;20441;-71
2022/06/08 09:55:56;;;;;;;3.15;1.60;;;;;;;24.37;29.61;99262.13;4971762;28;20081;-71
2022/06/08 09:58:27;;;;;;;5.60;1.35;;;;;;;24.35;28.97;99258.81;4970533;28;20085;-71
2022/06/08 10:00:59;;;;;;;6.53;1.48;;;;;;;24.37;29.03;99264.03;4971502;28;20045;-70
2022/06/08 10:03:46;;;;;;;4.82;1.00;;;;;;;24.35;28.34;99258.00;4967324;28;20049;-70
2022/06/08 10:06:28;;;;;;;5.72;1.58;;;;;;;24.30;28.42;99263.22;4970838;28;20131;-71
2022/06/08 10:09:30;;;;;;;3.10;1.15;;;;;;;24.28;28.12;99259.91;4972432;28;20051;-70
2022/06/08 10:12:12;;;;;;;2.85;1.15;;;;;;;24.22;28.77;99253.50;4968929;28;20054;-71
2022/06/08 10:15:01;;;;;;;4.95;1.13;;;;;;;24.26;28.92;99260.13;4965543;28;20031;-70
2022/06/08 10:17:42;;;;;;;7.25;1.52;;;;;;;24.25;28.19;99255.78;4969511;28;20049;-70
2022/06/08 10:20:12;;;;;;;;;;;;;;;24.18;28.34;99255.00;4975434;28;20038;-71
2022/06/08 10:22:42;;;;;;;4.85;1.02;;;;;;;24.21;28.31;99258.09;4975347;28;19917;-70
2022/06/08 10:25:22;;;;;;;3.50;0.90;;;;;;;24.23;28.02;99252.44;4973097;28;20039;-69
2022/06/08 10:27:54;;;;;;;1.80;0.90;;;;;;;24.25;28.06;99254.94;4971914;28;20042;-68
2022/06/08 10:30:34;;;;;;;2.25;0.77;;;;;;;24.26;27.94;99248.50;4974865;28;20286;-68
2022/06/08 10:33:11;;;;;;;2.38;0.95;;;;;;;24.27;28.73;99250.13;4974558;28;20042;-71
2022/06/08 10:35:41;;;;;;;5.70;1.35;;;;;;;24.27;28.58;99247.44;4970580;28;20074;-67
2022/06/08 10:38:17;;;;;;;3.10;1.07;;;;;;;24.27;28.76;99250.97;4972775;28;20043;-68
2022/06/08 10:44:00;;;;;;;1.77;1.08;;;;;;;24.26;28.54;99243.91;4919802;28;20039;-70
2022/06/08 10:46:46;;;;;;;3.42;0.90;;;;;;;24.28;28.69;99243.69;4972361;28;20049;-72
2022/06/08 10:49:37;;;;;;;7.80;1.23;;;;;;;24.31;29.34;99237.84;4976378;28;20045;-69
2022/06/08 10:52:12;;;;;;;7.45;1.27;;;;;;;24.29;29.71;99240.78;4974873;28;20055;-69
2022/06/08 10:54:55;;;;;;;2.63;0.90;;;;;;;24.29;30.23;99242.63;4968927;28;20050;-70
2022/06/08 10:57:40;;;;;;;1.50;0.90;;;;;;;24.26;30.52;99235.81;4970529;28;20121;-69
2022/06/08 11:00:24;;;;;;;3.55;0.93;;;;;;;24.25;29.37;99241.44;4965330;28;20178;-69
2022/06/08 11:02:59;;;;;;;2.20;1.10;;;;;;;24.26;28.77;99246.63;4969288;28;20478;-70
2022/06/08 11:05:36;;;;;;;4.03;0.80;;;;;;;24.27;28.66;99239.31;4973704;28;20042;-70
2022/06/08 11:08:01;;;;;;;3.00;0.90;;;;;;;24.24;29.14;99237.88;4975112;28;20129;-70
2022/06/08 11:10:44;;;;;;;2.38;0.80;;;;;;;24.25;29.82;99236.03;4975613;28;20468;-69
2022/06/08 11:13:25;;;;;;;5.65;1.00;;;;;;;24.23;29.79;99230.81;4976222;28;20041;-69
2022/06/08 11:15:55;;;;;;;;;;;;;;;24.14;29.83;99230.25;4974391;28;20042;-68
2022/06/08 11:18:31;;;;;;;5.90;1.30;;;;;;;24.16;29.89;99225.47;4975008;28;19925;-68
2022/06/08 11:21:15;;;;;;;12.20;2.08;;;;;;;24.18;30.45;99226.06;4973601;28;20073;-67
2022/06/08 11:23:46;;;;;;;6.75;1.50;;;;;;;24.20;30.19;99223.16;4968674;28;20101;-68
2022/06/08 11:26:46;;;;;;;9.00;1.40;;;;;;;24.23;30.74;99234.38;4974324;28;20489;-68
2022/06/08 11:29:18;;;;;;;5.30;1.20;;;;;;;24.22;30.57;99226.47;4975287;28;20089;-68
2022/06/08 11:31:43;;;;;;;3.28;1.05;;;;;;;24.22;30.74;99226.47;4974600;28;20262;-68
2022/06/08 11:34:21;;;;;;;2.85;0.77;;;;;;;24.21;30.20;99224.81;4975721;28;20049;-70
2022/06/08 11:36:58;;;;;;;3.38;1.13;;;;;;;24.22;30.26;99221.06;4975054;28;20386;-68
2022/06/08 11:39:30;;;;;;;4.45;1.10;;;;;;;24.22;30.73;99226.47;4974934;28;20042;-69
2022/06/08 11:42:08;;;;;;;2.92;0.88;;;;;;;24.17;31.14;99207.38;4975296;28;20052;-68
2022/06/08 11:44:35;;;;;;;4.85;1.15;;;;;;;24.20;31.06;99220.44;4975152;28;20141;-68
2022/06/08 11:47:09;;;;;;;3.92;1.13;;;;;;;24.19;31.01;99216.94;4974810;28;20106;-68
2022/06/08 11:49:42;;;;;;;2.38;1.10;;;;;;;24.17;30.84;99227.13;4975196;28;20384;-68
2022/06/08 11:52:33;;;;;;;2.50;1.13;;;;;;;24.18;30.99;99225.25;4974698;28;20057;-68
2022/06/08 11:55:08;;;;;;;2.15;1.05;;;;;;;24.17;30.59;99220.91;4975524;28;20034;-69
2022/06/08 11:57:36;;;;;;;3.42;1.33;;;;;;;24.17;31.12;99223.59;4974966;28;20045;-69
2022/06/08 12:00:14;;;;;;;1.88;1.10;;;;;;;24.16;31.12;99214.66;4966974;28;20118;-68
2022/06/08 12:02:40;;;;;;;3.90;1.38;;;;;;;24.16;31.39;99213.84;4976576;28;20034;-69
2022/06/08 12:05:07;;;;;;;1.90;0.95;;;;;;;24.16;31.26;99217.34;4994037;28;20379;-68
2022/06/08 12:07:56;;;;;;;3.83;1.27;;;;;;;24.16;30.64;99214.66;4994222;28;20033;-68
2022/06/08 12:10:26;;;;;;;2.30;1.10;;;;;;;24.15;30.87;99218.41;4993991;28;20037;-68